createdAt,value
2018-04-24T00:01:04.495Z,12.42
2018-04-24T00:03:36.990Z,12.36
2018-04-24T00:06:09.508Z,12.32
2018-04-24T00:08:42.004Z,12.28
2018-04-24T00:11:14.522Z,12.25
2018-04-24T00:13:47.016Z,12.20
2018-04-24T00:16:20.012Z,12.15
2018-04-24T00:18:52.559Z,12.16
2018-04-24T00:21:25.068Z,12.14
2018-04-24T00:23:57.632Z,12.16
2018-04-24T00:26:30.144Z,12.14
2018-04-24T00:29:02.636Z,12.06
2018-04-24T00:31:35.160Z,12.01
2018-04-24T00:34:07.871Z,11.92
2018-04-24T00:36:40.383Z,11.87
2018-04-24T00:39:12.873Z,11.89
2018-04-24T00:41:45.419Z,11.91
2018-04-24T00:44:18.190Z,11.72
2018-04-24T00:46:50.875Z,11.67
2018-04-24T00:49:23.310Z,11.77
2018-04-24T00:51:55.814Z,11.87
2018-04-24T00:54:28.299Z,11.97
2018-04-24T00:57:00.830Z,12.07
2018-04-24T00:59:33.419Z,12.14
2018-04-24T01:02:05.935Z,12.23
2018-04-24T01:04:38.488Z,12.29
2018-04-24T01:07:10.999Z,12.32
2018-04-24T01:09:43.577Z,12.36
2018-04-24T01:12:16.147Z,12.39
2018-04-24T01:14:49.166Z,12.30
2018-04-24T01:17:21.796Z,12.24
2018-04-24T01:19:54.286Z,12.21
2018-04-24T01:22:26.797Z,12.21
2018-04-24T01:24:59.278Z,12.26
2018-04-24T01:27:31.786Z,12.27
2018-04-24T01:30:04.359Z,12.31
2018-04-24T01:32:36.872Z,12.28
2018-04-24T01:35:09.360Z,12.27
2018-04-24T01:37:41.907Z,12.22
2018-04-24T01:40:14.497Z,12.06
2018-04-24T01:42:50.904Z,12.03
2018-04-24T01:45:24.520Z,11.99
2018-04-24T01:47:57.011Z,11.97
2018-04-24T01:50:29.543Z,11.96
2018-04-24T01:53:02.039Z,11.96
2018-04-24T01:55:34.627Z,11.96
2018-04-24T01:58:07.122Z,11.96
2018-04-24T02:00:39.640Z,11.92
2018-04-24T02:03:12.126Z,11.92
2018-04-24T02:05:44.668Z,11.93
2018-04-24T02:08:17.161Z,11.90
2018-04-24T02:10:50.450Z,11.92
2018-04-24T02:13:22.944Z,11.92
2018-04-24T02:15:55.519Z,11.95
2018-04-24T02:18:28.006Z,11.90
2018-04-24T02:21:00.600Z,11.84
2018-04-24T02:23:33.082Z,11.79
2018-04-24T02:26:05.604Z,11.91
2018-04-24T02:28:38.147Z,12.00
2018-04-24T02:31:10.662Z,12.06
2018-04-24T02:33:43.224Z,12.03
2018-04-24T02:36:15.804Z,12.05
2018-04-24T02:38:48.295Z,12.06
2018-04-24T02:41:20.807Z,12.06
2018-04-24T02:43:53.304Z,12.02
2018-04-24T02:46:25.820Z,12.01
2018-04-24T02:48:58.307Z,12.04
2018-04-24T02:51:30.819Z,12.05
2018-04-24T02:54:03.400Z,12.06
2018-04-24T02:56:35.989Z,12.01
2018-04-24T02:59:08.569Z,12.01
2018-04-24T03:01:41.170Z,12.06
2018-04-24T03:04:13.679Z,12.07
2018-04-24T03:06:46.223Z,12.12
2018-04-24T03:09:18.830Z,12.20
2018-04-24T03:11:51.426Z,12.09
2018-04-24T03:14:23.881Z,12.01
2018-04-24T03:16:56.471Z,12.00
2018-04-24T03:19:28.973Z,12.09
2018-04-24T03:22:01.550Z,12.23
2018-04-24T03:24:34.039Z,12.31
2018-04-24T03:27:06.583Z,12.26
2018-04-24T03:29:39.066Z,12.30
2018-04-24T03:32:11.585Z,12.37
2018-04-24T03:34:44.075Z,12.21
2018-04-24T03:37:16.639Z,12.43
2018-04-24T03:39:49.466Z,12.46
2018-04-24T03:42:21.987Z,12.55
2018-04-24T03:44:54.496Z,12.54
2018-04-24T03:47:27.010Z,12.65
2018-04-24T03:49:59.498Z,12.59
2018-04-24T03:52:32.016Z,12.46
2018-04-24T03:55:04.519Z,12.47
2018-04-24T03:57:37.030Z,12.56
2018-04-24T04:00:09.518Z,12.60
2018-04-24T04:02:42.088Z,12.69
2018-04-24T04:05:14.581Z,12.72
2018-04-24T04:07:47.151Z,12.76
2018-04-24T04:10:20.391Z,12.73
2018-04-24T04:12:52.909Z,12.71
2018-04-24T04:15:25.400Z,12.67
2018-04-24T04:18:09.671Z,12.67
2018-04-24T04:20:54.090Z,12.79
2018-04-24T04:23:39.471Z,12.83
2018-04-24T04:26:11.958Z,12.89
2018-04-24T04:28:44.511Z,12.92
2018-04-24T04:31:17.012Z,12.93
2018-04-24T04:33:50.100Z,12.87
2018-04-24T04:36:22.679Z,13.00
2018-04-24T04:38:55.196Z,13.00
2018-04-24T04:41:27.765Z,13.04
2018-04-24T04:44:00.235Z,13.12
2018-04-24T04:46:32.823Z,13.07
2018-04-24T04:49:05.405Z,13.06
2018-04-24T04:51:37.906Z,13.25
2018-04-24T04:54:10.416Z,13.01
2018-04-24T04:56:42.911Z,13.18
2018-04-24T04:59:15.427Z,13.22
2018-04-24T05:01:49.538Z,13.35
2018-04-24T05:04:22.178Z,13.36
2018-04-24T05:06:54.671Z,13.53
2018-04-24T05:09:27.178Z,13.70
2018-04-24T05:11:59.738Z,13.72
2018-04-24T05:14:32.259Z,13.65
2018-04-24T05:17:04.778Z,13.53
2018-04-24T05:19:37.283Z,13.29
2018-04-24T05:22:09.771Z,13.52
2018-04-24T05:24:42.340Z,13.62
2018-04-24T05:27:14.830Z,13.64
2018-04-24T05:29:47.340Z,13.55
2018-04-24T05:32:20.638Z,13.81
2018-04-24T05:34:53.195Z,14.12
2018-04-24T05:37:25.679Z,14.32
2018-04-24T05:39:58.213Z,14.46
2018-04-24T05:42:30.740Z,14.46
2018-04-24T05:45:03.331Z,14.27
2018-04-24T05:47:35.902Z,14.34
2018-04-24T05:50:08.428Z,14.56
2018-04-24T05:52:40.978Z,14.52
2018-04-24T05:55:13.505Z,14.60
2018-04-24T05:57:46.068Z,14.59
2018-04-24T06:00:19.189Z,14.83
2018-04-24T06:02:51.776Z,14.91
2018-04-24T06:05:24.291Z,14.96
2018-04-24T06:07:56.798Z,14.98
2018-04-24T06:10:29.387Z,14.86
2018-04-24T06:13:01.890Z,14.88
2018-04-24T06:15:34.451Z,15.07
2018-04-24T06:18:06.941Z,15.45
2018-04-24T06:20:39.519Z,15.69
2018-04-24T06:23:12.018Z,15.64
2018-04-24T06:25:44.534Z,15.77
2018-04-24T06:28:17.031Z,15.58
2018-04-24T06:30:50.042Z,15.47
2018-04-24T06:33:22.539Z,15.28
2018-04-24T06:35:55.069Z,15.30
2018-04-24T06:38:27.559Z,15.39
2018-04-24T06:41:00.090Z,15.32
2018-04-24T06:43:32.699Z,15.43
2018-04-24T06:46:05.254Z,15.45
2018-04-24T06:48:37.743Z,15.64
2018-04-24T06:51:10.260Z,15.71
2018-04-24T06:53:42.758Z,15.84
2018-04-24T06:56:15.271Z,15.92
2018-04-24T06:58:47.762Z,15.88
2018-04-24T07:01:20.800Z,15.90
2018-04-24T07:03:53.287Z,15.73
2018-04-24T07:06:25.884Z,15.74
2018-04-24T07:08:58.319Z,15.62
2018-04-24T07:11:30.837Z,15.80
2018-04-24T07:14:03.322Z,15.68
2018-04-24T07:16:35.867Z,16.01
2018-04-24T07:19:08.361Z,16.09
2018-04-24T07:21:40.885Z,16.29
2018-04-24T07:24:13.389Z,15.98
2018-04-24T07:26:45.991Z,15.84
2018-04-24T07:29:19.135Z,15.94
2018-04-24T07:31:51.654Z,15.89
2018-04-24T07:34:24.261Z,15.67
2018-04-24T07:36:56.783Z,15.55
2018-04-24T07:39:29.283Z,15.42
2018-04-24T07:42:01.912Z,15.51
2018-04-24T07:44:34.411Z,15.54
2018-04-24T07:47:06.975Z,15.79
2018-04-24T07:49:39.473Z,15.64
2018-04-24T07:52:12.000Z,15.76
2018-04-24T07:54:44.506Z,15.90
2018-04-24T07:57:17.016Z,16.02
2018-04-24T07:59:50.212Z,15.89
2018-04-24T08:02:22.798Z,15.73
2018-04-24T08:04:55.283Z,15.88
2018-04-24T08:07:27.798Z,15.91
2018-04-24T08:10:00.343Z,16.01
2018-04-24T08:12:32.922Z,16.18
2018-04-24T08:15:05.418Z,15.87
2018-04-24T08:17:37.991Z,16.00
2018-04-24T08:20:10.495Z,15.88
2018-04-24T08:22:43.057Z,15.56
2018-04-24T08:25:15.555Z,15.51
2018-04-24T08:27:48.721Z,15.42
2018-04-24T08:30:21.224Z,15.28
2018-04-24T08:32:53.749Z,15.66
2018-04-24T08:35:26.261Z,15.68
2018-04-24T08:37:58.776Z,15.48
2018-04-24T08:40:31.297Z,15.56
2018-04-24T08:43:03.819Z,15.66
2018-04-24T08:45:36.320Z,15.79
2018-04-24T08:48:08.924Z,16.03
2018-04-24T08:50:41.429Z,16.03
2018-04-24T08:53:13.941Z,15.92
2018-04-24T08:55:46.432Z,15.80
2018-04-24T08:58:20.022Z,15.81
2018-04-24T09:00:52.548Z,16.01
2018-04-24T09:03:25.063Z,15.92
2018-04-24T09:05:57.555Z,16.06
2018-04-24T09:08:30.103Z,16.16
2018-04-24T09:11:02.592Z,15.60
2018-04-24T09:13:35.107Z,15.90
2018-04-24T09:16:07.602Z,15.84
2018-04-24T09:18:40.123Z,15.97
2018-04-24T09:21:12.624Z,15.76
2018-04-24T09:23:45.183Z,15.75
2018-04-24T09:26:17.669Z,15.80
2018-04-24T09:28:51.019Z,15.75
2018-04-24T09:31:29.134Z,16.02
2018-04-24T09:34:01.652Z,16.43
2018-04-24T09:36:34.144Z,16.62
2018-04-24T09:39:06.688Z,16.52
2018-04-24T09:41:39.203Z,16.76
2018-04-24T09:44:11.721Z,16.93
2018-04-24T09:46:44.275Z,16.78
2018-04-24T09:49:16.850Z,16.63
2018-04-24T09:51:49.345Z,16.48
2018-04-24T09:54:21.887Z,16.48
2018-04-24T09:56:54.384Z,16.59
2018-04-24T09:59:26.984Z,16.24
2018-04-24T10:01:59.473Z,16.42
2018-04-24T10:04:32.088Z,16.67
2018-04-24T10:07:04.658Z,16.66
2018-04-24T10:09:40.551Z,16.53
2018-04-24T10:12:14.029Z,16.33
2018-04-24T10:14:46.561Z,16.12
2018-04-24T10:17:19.424Z,16.16
2018-04-24T10:19:52.018Z,16.32
2018-04-24T10:22:24.476Z,16.23
2018-04-24T10:24:57.021Z,16.02
2018-04-24T10:27:29.518Z,16.16
2018-04-24T10:30:02.124Z,16.21
2018-04-24T10:32:34.682Z,16.13
2018-04-24T10:35:07.199Z,16.14
2018-04-24T10:37:39.685Z,16.16
2018-04-24T10:40:12.203Z,16.20
2018-04-24T10:42:44.704Z,16.07
2018-04-24T10:45:17.294Z,16.30
2018-04-24T10:47:50.812Z,16.27
2018-04-24T10:50:23.333Z,16.22
2018-04-24T10:52:55.868Z,16.28
2018-04-24T10:55:28.384Z,16.14
2018-04-24T10:58:00.964Z,16.15
2018-04-24T11:00:33.585Z,16.23
2018-04-24T11:03:06.058Z,16.13
2018-04-24T11:05:38.652Z,15.91
2018-04-24T11:08:11.195Z,16.07
2018-04-24T11:10:45.737Z,16.21
2018-04-24T11:13:19.249Z,16.22
2018-04-24T11:15:51.779Z,16.27
2018-04-24T11:18:24.290Z,16.15
2018-04-24T11:20:56.810Z,15.88
2018-04-24T11:23:29.613Z,16.17
2018-04-24T11:26:02.167Z,16.13
2018-04-24T11:28:34.753Z,16.06
2018-04-24T11:31:07.263Z,16.16
2018-04-24T11:33:39.755Z,16.00
2018-04-24T11:36:12.283Z,16.07
2018-04-24T11:38:44.796Z,15.98
2018-04-24T11:41:17.380Z,16.15
2018-04-24T11:43:51.016Z,16.41
2018-04-24T11:46:23.527Z,16.48
2018-04-24T11:48:56.043Z,16.45
2018-04-24T11:51:28.635Z,16.42
2018-04-24T11:54:01.159Z,16.37
2018-04-24T11:56:33.699Z,16.32
2018-04-24T11:59:06.291Z,16.33
2018-04-24T12:01:38.887Z,16.10
2018-04-24T12:04:11.406Z,16.01
2018-04-24T12:06:43.911Z,16.16
2018-04-24T12:09:16.440Z,16.34
2018-04-24T12:11:49.430Z,16.14
2018-04-24T12:14:21.999Z,16.28
2018-04-24T12:16:54.490Z,16.33
2018-04-24T12:19:27.030Z,16.05
2018-04-24T12:21:59.529Z,16.16
2018-04-24T12:24:32.217Z,16.10
2018-04-24T12:27:04.684Z,16.22
2018-04-24T12:29:37.223Z,15.98
2018-04-24T12:32:09.807Z,15.81
2018-04-24T12:34:42.399Z,15.93
2018-04-24T12:37:14.898Z,16.01
2018-04-24T12:39:47.424Z,15.98
2018-04-24T12:42:20.027Z,16.08
2018-04-24T12:44:52.551Z,16.07
2018-04-24T12:47:25.056Z,15.89
2018-04-24T12:49:57.615Z,15.99
2018-04-24T12:52:30.195Z,16.07
2018-04-24T12:55:02.785Z,16.22
2018-04-24T12:57:35.288Z,16.41
2018-04-24T13:00:07.856Z,16.41
2018-04-24T13:02:40.359Z,16.24
2018-04-24T13:05:12.891Z,16.52
2018-04-24T13:07:45.396Z,16.64
2018-04-24T13:10:18.206Z,16.91
2018-04-24T13:12:50.792Z,16.66
2018-04-24T13:15:23.316Z,16.69
2018-04-24T13:17:55.812Z,16.49
2018-04-24T13:20:28.340Z,16.36
2018-04-24T13:23:00.842Z,16.67
2018-04-24T13:25:33.434Z,16.76
2018-04-24T13:28:05.885Z,16.84
2018-04-24T13:30:38.401Z,17.10
2018-04-24T13:33:10.980Z,17.05
2018-04-24T13:35:43.505Z,17.22
2018-04-24T13:38:16.017Z,17.26
2018-04-24T13:40:49.008Z,17.59
2018-04-24T13:43:21.512Z,17.75
2018-04-24T13:45:54.031Z,18.09
2018-04-24T13:48:26.531Z,18.09
2018-04-24T13:50:59.079Z,17.79
2018-04-24T13:53:31.683Z,17.54
2018-04-24T13:56:04.206Z,17.53
2018-04-24T13:58:36.747Z,17.45
2018-04-24T14:01:09.275Z,17.04
2018-04-24T14:03:41.818Z,17.02
2018-04-24T14:06:14.395Z,17.22
2018-04-24T14:08:46.904Z,16.91
2018-04-24T14:11:20.202Z,16.74
2018-04-24T14:13:52.772Z,16.89
2018-04-24T14:16:25.314Z,16.75
2018-04-24T14:18:57.815Z,16.91
2018-04-24T14:21:30.425Z,16.71
2018-04-24T14:24:02.945Z,16.81
2018-04-24T14:26:35.468Z,16.96
2018-04-24T14:29:07.993Z,16.72
2018-04-24T14:31:40.569Z,16.73
2018-04-24T14:34:13.066Z,17.02
2018-04-24T14:36:45.590Z,17.21
2018-04-24T14:39:18.244Z,17.27
2018-04-24T14:41:51.030Z,17.53
2018-04-24T14:44:23.531Z,17.65
2018-04-24T14:46:56.087Z,17.55
2018-04-24T14:49:28.663Z,17.89
2018-04-24T14:52:01.207Z,17.80
2018-04-24T14:54:33.730Z,17.97
2018-04-24T14:57:06.263Z,17.65
2018-04-24T14:59:38.805Z,17.83
2018-04-24T15:02:11.613Z,17.95
2018-04-24T15:04:44.115Z,18.15
2018-04-24T15:07:16.686Z,18.26
2018-04-24T15:09:49.163Z,18.33
2018-04-24T15:12:21.675Z,18.25
2018-04-24T15:14:54.223Z,17.96
2018-04-24T15:17:26.806Z,17.77
2018-04-24T15:19:59.390Z,17.80
2018-04-24T15:22:31.983Z,17.82
2018-04-24T15:25:04.507Z,17.60
2018-04-24T15:27:37.049Z,17.44
2018-04-24T15:30:09.639Z,17.47
2018-04-24T15:32:42.187Z,17.62
2018-04-24T15:35:14.805Z,17.82
2018-04-24T15:37:47.326Z,17.53
2018-04-24T15:40:20.637Z,17.47
2018-04-24T15:42:53.147Z,17.28
2018-04-24T15:45:25.668Z,17.24
2018-04-24T15:47:58.172Z,17.11
2018-04-24T15:50:30.735Z,17.02
2018-04-24T15:53:03.228Z,17.16
2018-04-24T15:55:35.799Z,16.83
2018-04-24T15:58:08.412Z,16.96
2018-04-24T16:00:40.954Z,17.20
2018-04-24T16:03:13.464Z,17.24
2018-04-24T16:05:46.051Z,16.96
2018-04-24T16:08:19.383Z,17.32
2018-04-24T16:10:52.080Z,17.29
2018-04-24T16:13:24.575Z,17.47
2018-04-24T16:15:57.092Z,17.33
2018-04-24T16:18:29.667Z,17.32
2018-04-24T16:21:02.280Z,17.34
2018-04-24T16:23:34.839Z,17.39
2018-04-24T16:26:07.464Z,17.41
2018-04-24T16:28:39.955Z,17.45
2018-04-24T16:31:12.473Z,17.14
2018-04-24T16:33:44.985Z,17.28
2018-04-24T16:36:17.508Z,17.09
2018-04-24T16:38:50.722Z,17.17
2018-04-24T16:41:23.288Z,17.16
2018-04-24T16:43:55.802Z,17.20
2018-04-24T16:46:28.393Z,17.06
2018-04-24T16:49:00.864Z,17.12
2018-04-24T16:51:33.384Z,17.22
2018-04-24T16:54:05.887Z,17.25
2018-04-24T16:56:38.402Z,17.16
2018-04-24T16:59:10.951Z,17.18
2018-04-24T17:01:43.708Z,17.24
2018-04-24T17:04:16.208Z,17.26
2018-04-24T17:06:49.373Z,17.33
2018-04-24T17:09:21.934Z,16.89
2018-04-24T17:11:54.456Z,16.96
2018-04-24T17:14:26.982Z,17.07
2018-04-24T17:16:59.772Z,17.05
2018-04-24T17:19:32.358Z,17.12
2018-04-24T17:22:04.964Z,17.03
2018-04-24T17:24:37.463Z,17.01
2018-04-24T17:27:09.981Z,17.01
2018-04-24T17:29:42.483Z,16.79
2018-04-24T17:32:14.995Z,16.91
2018-04-24T17:34:47.582Z,17.01
2018-04-24T17:37:20.863Z,17.04
2018-04-24T17:39:53.363Z,16.97
2018-04-24T17:42:25.938Z,16.79
2018-04-24T17:44:58.431Z,16.70
2018-04-24T17:47:30.947Z,16.89
2018-04-24T17:50:03.457Z,16.84
2018-04-24T17:52:36.095Z,16.86
2018-04-24T17:55:08.591Z,16.71
2018-04-24T17:57:41.111Z,16.67
2018-04-24T18:00:13.612Z,16.57
2018-04-24T18:02:46.234Z,16.50
2018-04-24T18:05:19.662Z,16.58
2018-04-24T18:07:52.230Z,16.40
2018-04-24T18:10:24.812Z,16.33
2018-04-24T18:12:57.340Z,16.42
2018-04-24T18:15:30.102Z,16.45
2018-04-24T18:18:02.651Z,16.31
2018-04-24T18:20:35.303Z,16.26
2018-04-24T18:23:08.169Z,16.13
2018-04-24T18:25:40.873Z,15.97
2018-04-24T18:28:13.949Z,16.03
2018-04-24T18:30:46.451Z,15.92
2018-04-24T18:33:19.015Z,15.79
2018-04-24T18:35:51.818Z,15.79
2018-04-24T18:38:24.742Z,15.64
2018-04-24T18:40:57.617Z,15.79
2018-04-24T18:43:30.631Z,15.86
2018-04-24T18:46:03.572Z,15.83
2018-04-24T18:48:36.623Z,15.88
2018-04-24T18:51:09.678Z,15.77
2018-04-24T18:53:42.703Z,15.78
2018-04-24T18:56:15.620Z,15.83
2018-04-24T18:58:48.553Z,15.61
2018-04-24T19:01:21.597Z,15.51
2018-04-24T19:03:54.291Z,15.62
2018-04-24T19:06:27.013Z,15.63
2018-04-24T19:08:59.818Z,15.55
2018-04-24T19:11:32.501Z,15.47
2018-04-24T19:14:10.512Z,15.51
2018-04-24T19:16:43.398Z,15.49
2018-04-24T19:19:21.503Z,15.54
2018-04-24T19:21:54.852Z,15.52
2018-04-24T19:24:32.932Z,15.44
2018-04-24T19:27:07.235Z,15.43
2018-04-24T19:29:40.217Z,15.38
2018-04-24T19:32:18.229Z,15.26
2018-04-24T19:34:55.247Z,15.31
2018-04-24T19:37:27.820Z,15.40
2018-04-24T19:40:05.912Z,15.36
2018-04-24T19:42:38.487Z,15.43
2018-04-24T19:45:11.251Z,15.38
2018-04-24T19:47:44.040Z,15.40
2018-04-24T19:50:19.541Z,15.29
2018-04-24T19:52:52.209Z,15.30
2018-04-24T19:55:26.533Z,15.23
2018-04-24T19:57:59.052Z,15.27
2018-04-24T20:00:31.584Z,15.21
2018-04-24T20:03:04.168Z,15.25
2018-04-24T20:05:37.020Z,15.23
2018-04-24T20:08:09.952Z,15.26
2018-04-24T20:10:42.462Z,15.29
2018-04-24T20:13:15.009Z,15.33
2018-04-24T20:15:47.508Z,15.33
2018-04-24T20:18:20.115Z,15.30
2018-04-24T20:20:52.599Z,15.28
2018-04-24T20:23:25.557Z,15.22
2018-04-24T20:25:58.079Z,15.19
2018-04-24T20:28:30.681Z,15.17
2018-04-24T20:31:03.190Z,15.13
2018-04-24T20:33:35.935Z,15.15
2018-04-24T20:36:08.443Z,15.14
2018-04-24T20:38:41.019Z,15.18
2018-04-24T20:41:13.534Z,15.18
2018-04-24T20:43:46.116Z,15.18
2018-04-24T20:46:18.616Z,15.18
2018-04-24T20:48:51.201Z,15.16
2018-04-24T20:51:23.704Z,15.16
2018-04-24T20:53:56.222Z,15.14
2018-04-24T20:56:28.783Z,15.06
2018-04-24T20:59:01.315Z,14.99
2018-04-24T21:01:33.815Z,14.97
2018-04-24T21:04:07.056Z,15.00
2018-04-24T21:06:39.599Z,14.96
2018-04-24T21:09:12.125Z,14.93
2018-04-24T21:11:44.628Z,14.93
2018-04-24T21:14:17.148Z,14.88
2018-04-24T21:16:49.671Z,14.91
2018-04-24T21:19:22.231Z,14.87
2018-04-24T21:21:55.209Z,14.84
2018-04-24T21:24:27.730Z,14.84
2018-04-24T21:27:00.278Z,14.82
2018-04-24T21:29:32.796Z,14.76
2018-04-24T21:32:05.297Z,14.79
2018-04-24T21:34:38.666Z,14.76
2018-04-24T21:37:11.243Z,14.79
2018-04-24T21:39:43.829Z,14.75
2018-04-24T21:42:16.411Z,14.77
2018-04-24T21:44:48.909Z,14.78
2018-04-24T21:47:21.435Z,14.73
2018-04-24T21:49:53.935Z,14.64
2018-04-24T21:52:27.063Z,14.65
2018-04-24T21:54:59.818Z,14.56
2018-04-24T21:57:32.346Z,14.50
2018-04-24T22:00:04.850Z,14.42
2018-04-24T22:02:37.423Z,14.44
2018-04-24T22:05:10.008Z,14.33
2018-04-24T22:07:42.533Z,14.23
2018-04-24T22:10:15.082Z,14.40
2018-04-24T22:12:47.612Z,14.36
2018-04-24T22:15:20.118Z,14.44
2018-04-24T22:17:52.703Z,14.52
2018-04-24T22:20:25.203Z,14.53
2018-04-24T22:22:57.728Z,14.61
2018-04-24T22:25:30.291Z,14.60
2018-04-24T22:28:03.840Z,14.61
2018-04-24T22:30:36.379Z,14.55
2018-04-24T22:33:08.984Z,14.43
2018-04-24T22:35:41.515Z,14.30
2018-04-24T22:38:14.171Z,14.41
2018-04-24T22:40:46.718Z,14.40
2018-04-24T22:43:19.330Z,14.37
2018-04-24T22:45:51.910Z,14.44
2018-04-24T22:48:24.427Z,14.42
2018-04-24T22:50:56.931Z,14.43
2018-04-24T22:53:29.448Z,14.42
2018-04-24T22:56:02.519Z,14.37
2018-04-24T22:58:35.036Z,14.38
2018-04-24T23:01:07.536Z,14.39
2018-04-24T23:03:40.091Z,14.39
2018-04-24T23:06:12.581Z,14.34
2018-04-24T23:08:45.119Z,14.30
2018-04-24T23:11:29.539Z,14.30
2018-04-24T23:14:13.968Z,14.38
2018-04-24T23:16:58.435Z,14.35
2018-04-24T23:19:42.745Z,14.34
2018-04-24T23:22:21.907Z,14.32
2018-04-24T23:24:54.419Z,14.23
2018-04-24T23:27:26.922Z,14.34
2018-04-24T23:29:59.527Z,14.29
2018-04-24T23:32:32.099Z,14.40
2018-04-24T23:35:04.624Z,14.39
2018-04-24T23:37:37.134Z,14.36
2018-04-24T23:40:09.747Z,14.36
2018-04-24T23:42:42.249Z,14.41
2018-04-24T23:45:14.968Z,14.31
2018-04-24T23:47:47.459Z,14.27
2018-04-24T23:50:19.983Z,14.32
2018-04-24T23:52:52.588Z,14.31
2018-04-24T23:55:25.100Z,14.25
2018-04-24T23:57:57.593Z,14.18
